sensor_id;sensor_type;location;lat;lon;timestamp;P1;durP1;ratioP1;P2;durP2;ratioP2
74042;SDS011;62384;53.600;10.040;2023-08-30T00:00:59;3.25;;;2.00;;
74042;SDS011;62384;53.600;10.040;2023-08-30T00:03:24;5.72;;;2.63;;
74042;SDS011;62384;53.600;10.040;2023-08-30T00:05:50;4.78;;;2.67;;
74042;SDS011;62384;53.600;10.040;2023-08-30T00:08:21;4.78;;;2.50;;
74042;SDS011;62384;53.600;10.040;2023-08-30T00:10:47;7.20;;;2.67;;
74042;SDS011;62384;53.600;10.040;2023-08-30T00:13:12;5.38;;;2.95;;
74042;SDS011;62384;53.600;10.040;2023-08-30T00:15:37;4.00;;;2.80;;
74042;SDS011;62384;53.600;10.040;2023-08-30T00:18:03;12.82;;;3.28;;
74042;SDS011;62384;53.600;10.040;2023-08-30T00:20:29;4.03;;;2.78;;
74042;SDS011;62384;53.600;10.040;2023-08-30T00:22:54;6.10;;;2.95;;
74042;SDS011;62384;53.600;10.040;2023-08-30T00:25:19;6.20;;;3.13;;
74042;SDS011;62384;53.600;10.040;2023-08-30T00:27:45;4.90;;;2.80;;
74042;SDS011;62384;53.600;10.040;2023-08-30T00:30:11;5.05;;;2.80;;
74042;SDS011;62384;53.600;10.040;2023-08-30T00:32:36;4.75;;;2.90;;
74042;SDS011;62384;53.600;10.040;2023-08-30T00:35:02;5.97;;;3.05;;
74042;SDS011;62384;53.600;10.040;2023-08-30T00:37:35;5.57;;;2.80;;
74042;SDS011;62384;53.600;10.040;2023-08-30T00:40:00;5.53;;;2.80;;
74042;SDS011;62384;53.600;10.040;2023-08-30T00:42:26;6.22;;;3.28;;
74042;SDS011;62384;53.600;10.040;2023-08-30T00:44:52;4.60;;;2.95;;
74042;SDS011;62384;53.600;10.040;2023-08-30T00:47:17;5.50;;;2.92;;
74042;SDS011;62384;53.600;10.040;2023-08-30T00:49:42;6.68;;;2.97;;
74042;SDS011;62384;53.600;10.040;2023-08-30T00:52:09;5.35;;;2.80;;
74042;SDS011;62384;53.600;10.040;2023-08-30T00:54:35;5.30;;;2.90;;
74042;SDS011;62384;53.600;10.040;2023-08-30T00:57:01;7.22;;;3.45;;
74042;SDS011;62384;53.600;10.040;2023-08-30T00:59:27;6.75;;;3.20;;
74042;SDS011;62384;53.600;10.040;2023-08-30T01:01:53;6.65;;;2.70;;
74042;SDS011;62384;53.600;10.040;2023-08-30T01:04:20;6.53;;;3.17;;
74042;SDS011;62384;53.600;10.040;2023-08-30T01:06:45;6.28;;;3.33;;
74042;SDS011;62384;53.600;10.040;2023-08-30T01:09:10;4.68;;;2.85;;
74042;SDS011;62384;53.600;10.040;2023-08-30T01:14:09;5.72;;;3.10;;
74042;SDS011;62384;53.600;10.040;2023-08-30T01:16:39;5.82;;;3.53;;
74042;SDS011;62384;53.600;10.040;2023-08-30T01:19:10;5.68;;;3.20;;
74042;SDS011;62384;53.600;10.040;2023-08-30T01:21:53;8.63;;;3.80;;
74042;SDS011;62384;53.600;10.040;2023-08-30T01:24:28;7.63;;;3.95;;
74042;SDS011;62384;53.600;10.040;2023-08-30T01:29:33;6.78;;;3.08;;
74042;SDS011;62384;53.600;10.040;2023-08-30T01:32:00;7.03;;;3.83;;
74042;SDS011;62384;53.600;10.040;2023-08-30T01:34:27;6.47;;;3.45;;
74042;SDS011;62384;53.600;10.040;2023-08-30T01:36:53;9.40;;;3.10;;
74042;SDS011;62384;53.600;10.040;2023-08-30T01:39:18;6.95;;;3.88;;
74042;SDS011;62384;53.600;10.040;2023-08-30T01:41:45;6.78;;;3.70;;
74042;SDS011;62384;53.600;10.040;2023-08-30T01:44:21;6.50;;;3.55;;
74042;SDS011;62384;53.600;10.040;2023-08-30T01:46:46;5.93;;;3.17;;
74042;SDS011;62384;53.600;10.040;2023-08-30T01:49:13;7.10;;;3.53;;
74042;SDS011;62384;53.600;10.040;2023-08-30T01:51:39;7.38;;;3.25;;
74042;SDS011;62384;53.600;10.040;2023-08-30T01:54:05;6.65;;;3.40;;
74042;SDS011;62384;53.600;10.040;2023-08-30T01:56:33;8.00;;;3.42;;
74042;SDS011;62384;53.600;10.040;2023-08-30T01:58:58;7.85;;;3.10;;
74042;SDS011;62384;53.600;10.040;2023-08-30T02:01:24;9.48;;;3.83;;
74042;SDS011;62384;53.600;10.040;2023-08-30T02:03:49;5.57;;;2.95;;
74042;SDS011;62384;53.600;10.040;2023-08-30T02:06:16;6.82;;;3.60;;
74042;SDS011;62384;53.600;10.040;2023-08-30T02:11:19;5.50;;;2.80;;
74042;SDS011;62384;53.600;10.040;2023-08-30T02:13:47;7.32;;;3.72;;
74042;SDS011;62384;53.600;10.040;2023-08-30T02:16:13;8.20;;;3.40;;
74042;SDS011;62384;53.600;10.040;2023-08-30T02:18:41;6.22;;;3.10;;
74042;SDS011;62384;53.600;10.040;2023-08-30T02:21:06;4.95;;;2.90;;
74042;SDS011;62384;53.600;10.040;2023-08-30T02:23:39;4.68;;;2.95;;
74042;SDS011;62384;53.600;10.040;2023-08-30T02:26:04;9.38;;;3.13;;
74042;SDS011;62384;53.600;10.040;2023-08-30T02:28:30;5.25;;;2.70;;
74042;SDS011;62384;53.600;10.040;2023-08-30T02:31:00;6.43;;;3.33;;
74042;SDS011;62384;53.600;10.040;2023-08-30T02:33:26;8.68;;;3.47;;
74042;SDS011;62384;53.600;10.040;2023-08-30T02:35:51;6.53;;;2.88;;
74042;SDS011;62384;53.600;10.040;2023-08-30T02:38:18;8.05;;;3.47;;
74042;SDS011;62384;53.600;10.040;2023-08-30T02:40:44;6.18;;;3.85;;
74042;SDS011;62384;53.600;10.040;2023-08-30T02:43:09;7.40;;;3.47;;
74042;SDS011;62384;53.600;10.040;2023-08-30T02:45:35;9.45;;;3.58;;
74042;SDS011;62384;53.600;10.040;2023-08-30T02:48:01;7.30;;;3.33;;
74042;SDS011;62384;53.600;10.040;2023-08-30T02:50:29;9.23;;;4.05;;
74042;SDS011;62384;53.600;10.040;2023-08-30T02:52:54;6.30;;;3.60;;
74042;SDS011;62384;53.600;10.040;2023-08-30T02:55:19;7.78;;;4.38;;
74042;SDS011;62384;53.600;10.040;2023-08-30T02:57:45;6.18;;;3.65;;
74042;SDS011;62384;53.600;10.040;2023-08-30T03:00:11;8.38;;;3.88;;
74042;SDS011;62384;53.600;10.040;2023-08-30T03:02:37;7.90;;;3.67;;
74042;SDS011;62384;53.600;10.040;2023-08-30T03:05:02;7.60;;;4.35;;
74042;SDS011;62384;53.600;10.040;2023-08-30T03:07:30;7.40;;;3.60;;
74042;SDS011;62384;53.600;10.040;2023-08-30T03:09:56;8.35;;;4.15;;
74042;SDS011;62384;53.600;10.040;2023-08-30T03:12:21;8.07;;;3.67;;
74042;SDS011;62384;53.600;10.040;2023-08-30T03:14:46;6.18;;;3.80;;
74042;SDS011;62384;53.600;10.040;2023-08-30T03:17:12;7.95;;;4.03;;
74042;SDS011;62384;53.600;10.040;2023-08-30T03:19:37;5.88;;;3.47;;
74042;SDS011;62384;53.600;10.040;2023-08-30T03:22:02;6.20;;;3.58;;
74042;SDS011;62384;53.600;10.040;2023-08-30T03:24:28;8.02;;;3.90;;
74042;SDS011;62384;53.600;10.040;2023-08-30T03:26:53;6.63;;;3.75;;
74042;SDS011;62384;53.600;10.040;2023-08-30T03:29:20;7.32;;;4.07;;
74042;SDS011;62384;53.600;10.040;2023-08-30T03:31:45;8.98;;;4.32;;
74042;SDS011;62384;53.600;10.040;2023-08-30T03:34:10;6.72;;;4.32;;
74042;SDS011;62384;53.600;10.040;2023-08-30T03:36:36;8.70;;;4.10;;
74042;SDS011;62384;53.600;10.040;2023-08-30T03:39:11;7.30;;;3.88;;
74042;SDS011;62384;53.600;10.040;2023-08-30T03:41:37;10.10;;;4.55;;
74042;SDS011;62384;53.600;10.040;2023-08-30T03:44:09;6.65;;;3.83;;
74042;SDS011;62384;53.600;10.040;2023-08-30T03:46:40;7.00;;;3.53;;
74042;SDS011;62384;53.600;10.040;2023-08-30T03:49:10;7.53;;;4.00;;
74042;SDS011;62384;53.600;10.040;2023-08-30T03:51:40;7.60;;;4.32;;
74042;SDS011;62384;53.600;10.040;2023-08-30T03:54:06;7.20;;;4.32;;
74042;SDS011;62384;53.600;10.040;2023-08-30T03:56:31;6.43;;;3.85;;
74042;SDS011;62384;53.600;10.040;2023-08-30T03:59:08;7.10;;;3.70;;
74042;SDS011;62384;53.600;10.040;2023-08-30T04:01:34;6.95;;;3.97;;
74042;SDS011;62384;53.600;10.040;2023-08-30T04:03:59;9.75;;;4.78;;
74042;SDS011;62384;53.600;10.040;2023-08-30T04:06:24;11.48;;;4.07;;
74042;SDS011;62384;53.600;10.040;2023-08-30T04:09:01;12.35;;;4.07;;
74042;SDS011;62384;53.600;10.040;2023-08-30T04:11:26;7.75;;;3.92;;
74042;SDS011;62384;53.600;10.040;2023-08-30T04:13:52;13.82;;;5.68;;
74042;SDS011;62384;53.600;10.040;2023-08-30T04:16:17;9.93;;;4.40;;
74042;SDS011;62384;53.600;10.040;2023-08-30T04:18:50;9.30;;;3.92;;
74042;SDS011;62384;53.600;10.040;2023-08-30T04:21:21;7.85;;;4.30;;
74042;SDS011;62384;53.600;10.040;2023-08-30T04:23:46;10.70;;;4.40;;
74042;SDS011;62384;53.600;10.040;2023-08-30T04:26:11;8.02;;;3.85;;
74042;SDS011;62384;53.600;10.040;2023-08-30T04:28:36;10.25;;;4.20;;
74042;SDS011;62384;53.600;10.040;2023-08-30T04:31:02;9.60;;;4.20;;
74042;SDS011;62384;53.600;10.040;2023-08-30T04:33:27;11.30;;;4.30;;
74042;SDS011;62384;53.600;10.040;2023-08-30T04:35:53;10.07;;;5.00;;
74042;SDS011;62384;53.600;10.040;2023-08-30T04:38:19;10.48;;;4.82;;
74042;SDS011;62384;53.600;10.040;2023-08-30T04:40:45;10.52;;;4.47;;
74042;SDS011;62384;53.600;10.040;2023-08-30T04:43:11;11.73;;;5.25;;
74042;SDS011;62384;53.600;10.040;2023-08-30T04:45:37;9.20;;;4.82;;
74042;SDS011;62384;53.600;10.040;2023-08-30T04:48:02;8.50;;;4.68;;
74042;SDS011;62384;53.600;10.040;2023-08-30T04:50:28;8.82;;;4.57;;
74042;SDS011;62384;53.600;10.040;2023-08-30T04:52:53;8.80;;;4.85;;
74042;SDS011;62384;53.600;10.040;2023-08-30T04:55:19;8.88;;;4.90;;
74042;SDS011;62384;53.600;10.040;2023-08-30T04:57:50;14.20;;;5.68;;
74042;SDS011;62384;53.600;10.040;2023-08-30T05:00:16;11.63;;;5.40;;
74042;SDS011;62384;53.600;10.040;2023-08-30T05:02:51;8.82;;;5.15;;
74042;SDS011;62384;53.600;10.040;2023-08-30T05:05:16;10.68;;;5.32;;
74042;SDS011;62384;53.600;10.040;2023-08-30T05:07:42;12.10;;;5.68;;
74042;SDS011;62384;53.600;10.040;2023-08-30T05:10:07;9.95;;;5.30;;
74042;SDS011;62384;53.600;10.040;2023-08-30T05:12:33;12.18;;;5.82;;
74042;SDS011;62384;53.600;10.040;2023-08-30T05:15:00;9.40;;;5.50;;
74042;SDS011;62384;53.600;10.040;2023-08-30T05:17:25;13.25;;;5.63;;
74042;SDS011;62384;53.600;10.040;2023-08-30T05:19:51;11.82;;;5.45;;
74042;SDS011;62384;53.600;10.040;2023-08-30T05:22:16;12.88;;;6.38;;
74042;SDS011;62384;53.600;10.040;2023-08-30T05:24:42;9.73;;;5.78;;
74042;SDS011;62384;53.600;10.040;2023-08-30T05:27:08;13.43;;;6.63;;
74042;SDS011;62384;53.600;10.040;2023-08-30T05:29:33;8.77;;;5.47;;
74042;SDS011;62384;53.600;10.040;2023-08-30T05:31:58;10.30;;;5.55;;
74042;SDS011;62384;53.600;10.040;2023-08-30T05:34:24;11.50;;;5.88;;
74042;SDS011;62384;53.600;10.040;2023-08-30T05:36:52;9.68;;;5.18;;
74042;SDS011;62384;53.600;10.040;2023-08-30T05:39:18;10.40;;;5.93;;
74042;SDS011;62384;53.600;10.040;2023-08-30T05:41:43;11.82;;;5.20;;
74042;SDS011;62384;53.600;10.040;2023-08-30T05:44:08;11.32;;;5.25;;
74042;SDS011;62384;53.600;10.040;2023-08-30T05:46:34;10.35;;;5.53;;
74042;SDS011;62384;53.600;10.040;2023-08-30T05:48:59;9.20;;;5.30;;
74042;SDS011;62384;53.600;10.040;2023-08-30T05:51:27;12.25;;;5.65;;
74042;SDS011;62384;53.600;10.040;2023-08-30T05:54:01;11.05;;;5.63;;
74042;SDS011;62384;53.600;10.040;2023-08-30T05:56:34;9.27;;;4.97;;
74042;SDS011;62384;53.600;10.040;2023-08-30T05:59:00;9.65;;;5.63;;
74042;SDS011;62384;53.600;10.040;2023-08-30T06:01:26;9.38;;;5.60;;
74042;SDS011;62384;53.600;10.040;2023-08-30T06:03:51;11.07;;;5.50;;
74042;SDS011;62384;53.600;10.040;2023-08-30T06:06:21;10.70;;;5.85;;
74042;SDS011;62384;53.600;10.040;2023-08-30T06:08:46;9.63;;;4.95;;
74042;SDS011;62384;53.600;10.040;2023-08-30T06:11:11;11.45;;;5.45;;
74042;SDS011;62384;53.600;10.040;2023-08-30T06:13:37;12.18;;;5.57;;
74042;SDS011;62384;53.600;10.040;2023-08-30T06:16:03;14.23;;;5.82;;
74042;SDS011;62384;53.600;10.040;2023-08-30T06:18:29;12.95;;;5.75;;
74042;SDS011;62384;53.600;10.040;2023-08-30T06:20:55;10.60;;;5.07;;
74042;SDS011;62384;53.600;10.040;2023-08-30T06:23:20;13.75;;;6.00;;
74042;SDS011;62384;53.600;10.040;2023-08-30T06:25:52;8.68;;;4.63;;
74042;SDS011;62384;53.600;10.040;2023-08-30T06:28:18;11.57;;;4.80;;
74042;SDS011;62384;53.600;10.040;2023-08-30T06:30:44;9.88;;;5.03;;
74042;SDS011;62384;53.600;10.040;2023-08-30T06:33:09;12.07;;;5.18;;
74042;SDS011;62384;53.600;10.040;2023-08-30T06:35:36;9.95;;;4.68;;
74042;SDS011;62384;53.600;10.040;2023-08-30T06:38:04;9.85;;;5.03;;
74042;SDS011;62384;53.600;10.040;2023-08-30T06:40:29;12.57;;;5.03;;
74042;SDS011;62384;53.600;10.040;2023-08-30T06:43:00;11.68;;;5.00;;
74042;SDS011;62384;53.600;10.040;2023-08-30T06:45:25;7.60;;;4.43;;
74042;SDS011;62384;53.600;10.040;2023-08-30T06:47:50;9.43;;;4.43;;
74042;SDS011;62384;53.600;10.040;2023-08-30T06:50:17;8.68;;;4.32;;
74042;SDS011;62384;53.600;10.040;2023-08-30T06:52:43;10.98;;;4.90;;
74042;SDS011;62384;53.600;10.040;2023-08-30T06:55:08;12.13;;;4.57;;
74042;SDS011;62384;53.600;10.040;2023-08-30T06:57:34;8.25;;;4.43;;
74042;SDS011;62384;53.600;10.040;2023-08-30T06:59:59;6.50;;;4.07;;
74042;SDS011;62384;53.600;10.040;2023-08-30T07:02:32;8.52;;;5.30;;
74042;SDS011;62384;53.600;10.040;2023-08-30T07:04:57;13.82;;;4.65;;
74042;SDS011;62384;53.600;10.040;2023-08-30T07:07:22;11.15;;;4.60;;
74042;SDS011;62384;53.600;10.040;2023-08-30T07:09:47;12.43;;;4.35;;
74042;SDS011;62384;53.600;10.040;2023-08-30T07:12:16;8.10;;;4.85;;
74042;SDS011;62384;53.600;10.040;2023-08-30T07:14:41;7.25;;;4.78;;
74042;SDS011;62384;53.600;10.040;2023-08-30T07:17:07;9.60;;;4.80;;
74042;SDS011;62384;53.600;10.040;2023-08-30T07:19:32;8.05;;;4.95;;
74042;SDS011;62384;53.600;10.040;2023-08-30T07:21:57;9.98;;;5.13;;
74042;SDS011;62384;53.600;10.040;2023-08-30T07:24:22;13.98;;;5.60;;
74042;SDS011;62384;53.600;10.040;2023-08-30T07:26:48;10.00;;;5.03;;
74042;SDS011;62384;53.600;10.040;2023-08-30T07:29:13;11.25;;;5.25;;
74042;SDS011;62384;53.600;10.040;2023-08-30T07:31:39;9.70;;;4.97;;
74042;SDS011;62384;53.600;10.040;2023-08-30T07:34:06;9.80;;;4.57;;
74042;SDS011;62384;53.600;10.040;2023-08-30T07:36:32;12.63;;;4.90;;
74042;SDS011;62384;53.600;10.040;2023-08-30T07:38:58;8.07;;;4.80;;
74042;SDS011;62384;53.600;10.040;2023-08-30T07:41:23;12.05;;;4.28;;
74042;SDS011;62384;53.600;10.040;2023-08-30T07:43:48;11.40;;;4.45;;
74042;SDS011;62384;53.600;10.040;2023-08-30T07:46:13;12.38;;;5.80;;
74042;SDS011;62384;53.600;10.040;2023-08-30T07:48:39;7.85;;;4.80;;
74042;SDS011;62384;53.600;10.040;2023-08-30T07:51:09;7.15;;;4.45;;
74042;SDS011;62384;53.600;10.040;2023-08-30T07:53:35;7.47;;;4.95;;
74042;SDS011;62384;53.600;10.040;2023-08-30T07:56:00;8.75;;;4.60;;
74042;SDS011;62384;53.600;10.040;2023-08-30T07:58:25;10.30;;;4.95;;
74042;SDS011;62384;53.600;10.040;2023-08-30T08:00:51;7.68;;;4.47;;
74042;SDS011;62384;53.600;10.040;2023-08-30T08:03:17;8.05;;;4.97;;
74042;SDS011;62384;53.600;10.040;2023-08-30T08:05:43;8.77;;;5.00;;
74042;SDS011;62384;53.600;10.040;2023-08-30T08:08:08;11.80;;;4.72;;
74042;SDS011;62384;53.600;10.040;2023-08-30T08:10:36;11.70;;;5.13;;
74042;SDS011;62384;53.600;10.040;2023-08-30T08:13:01;8.35;;;4.88;;
74042;SDS011;62384;53.600;10.040;2023-08-30T08:15:28;9.35;;;5.18;;
74042;SDS011;62384;53.600;10.040;2023-08-30T08:17:55;10.52;;;4.80;;
74042;SDS011;62384;53.600;10.040;2023-08-30T08:20:21;8.07;;;4.20;;
74042;SDS011;62384;53.600;10.040;2023-08-30T08:22:46;13.20;;;5.93;;
74042;SDS011;62384;53.600;10.040;2023-08-30T08:25:11;10.95;;;5.90;;
74042;SDS011;62384;53.600;10.040;2023-08-30T08:27:36;9.82;;;4.93;;
74042;SDS011;62384;53.600;10.040;2023-08-30T08:30:03;11.40;;;6.28;;
74042;SDS011;62384;53.600;10.040;2023-08-30T08:32:30;12.88;;;5.53;;
74042;SDS011;62384;53.600;10.040;2023-08-30T08:34:56;13.10;;;5.53;;
74042;SDS011;62384;53.600;10.040;2023-08-30T08:37:23;9.45;;;5.35;;
74042;SDS011;62384;53.600;10.040;2023-08-30T08:39:48;9.75;;;5.70;;
74042;SDS011;62384;53.600;10.040;2023-08-30T08:42:20;11.52;;;4.93;;
74042;SDS011;62384;53.600;10.040;2023-08-30T08:44:46;8.52;;;5.72;;
74042;SDS011;62384;53.600;10.040;2023-08-30T08:47:13;9.43;;;4.80;;
74042;SDS011;62384;53.600;10.040;2023-08-30T08:49:41;9.75;;;4.43;;
74042;SDS011;62384;53.600;10.040;2023-08-30T08:52:07;9.27;;;4.43;;
74042;SDS011;62384;53.600;10.040;2023-08-30T08:54:32;10.27;;;4.53;;
74042;SDS011;62384;53.600;10.040;2023-08-30T08:56:58;10.80;;;4.35;;
74042;SDS011;62384;53.600;10.040;2023-08-30T08:59:29;9.50;;;5.38;;
74042;SDS011;62384;53.600;10.040;2023-08-30T09:01:54;7.45;;;4.85;;
74042;SDS011;62384;53.600;10.040;2023-08-30T09:04:20;12.50;;;4.38;;
74042;SDS011;62384;53.600;10.040;2023-08-30T09:06:50;7.32;;;4.03;;
74042;SDS011;62384;53.600;10.040;2023-08-30T09:09:16;7.43;;;3.78;;
74042;SDS011;62384;53.600;10.040;2023-08-30T09:14:30;6.13;;;3.85;;
74042;SDS011;62384;53.600;10.040;2023-08-30T09:17:02;9.43;;;3.42;;
74042;SDS011;62384;53.600;10.040;2023-08-30T09:19:30;4.60;;;3.05;;
74042;SDS011;62384;53.600;10.040;2023-08-30T09:21:57;6.50;;;3.13;;
74042;SDS011;62384;53.600;10.040;2023-08-30T09:24:23;7.18;;;3.47;;
74042;SDS011;62384;53.600;10.040;2023-08-30T09:26:50;6.82;;;3.20;;
74042;SDS011;62384;53.600;10.040;2023-08-30T09:29:20;7.20;;;3.63;;
74042;SDS011;62384;53.600;10.040;2023-08-30T09:31:50;11.85;;;4.38;;
74042;SDS011;62384;53.600;10.040;2023-08-30T09:34:16;10.40;;;3.67;;
74042;SDS011;62384;53.600;10.040;2023-08-30T09:36:42;10.27;;;3.55;;
74042;SDS011;62384;53.600;10.040;2023-08-30T09:39:11;4.88;;;2.80;;
74042;SDS011;62384;53.600;10.040;2023-08-30T09:41:40;6.55;;;3.17;;
74042;SDS011;62384;53.600;10.040;2023-08-30T09:44:09;8.32;;;2.95;;
74042;SDS011;62384;53.600;10.040;2023-08-30T09:46:51;6.93;;;3.40;;
74042;SDS011;62384;53.600;10.040;2023-08-30T09:49:26;7.97;;;2.90;;
74042;SDS011;62384;53.600;10.040;2023-08-30T09:51:52;6.57;;;3.38;;
74042;SDS011;62384;53.600;10.040;2023-08-30T09:54:21;5.57;;;2.97;;
74042;SDS011;62384;53.600;10.040;2023-08-30T09:56:48;5.65;;;2.42;;
74042;SDS011;62384;53.600;10.040;2023-08-30T09:59:17;5.93;;;3.70;;
74042;SDS011;62384;53.600;10.040;2023-08-30T10:01:43;9.25;;;3.67;;
74042;SDS011;62384;53.600;10.040;2023-08-30T10:04:10;6.10;;;3.10;;
74042;SDS011;62384;53.600;10.040;2023-08-30T10:06:38;9.63;;;3.13;;
74042;SDS011;62384;53.600;10.040;2023-08-30T10:09:05;8.07;;;3.53;;
74042;SDS011;62384;53.600;10.040;2023-08-30T10:11:36;8.05;;;3.00;;
74042;SDS011;62384;53.600;10.040;2023-08-30T10:14:03;12.38;;;2.88;;
74042;SDS011;62384;53.600;10.040;2023-08-30T10:16:35;8.65;;;3.42;;
74042;SDS011;62384;53.600;10.040;2023-08-30T10:19:30;4.97;;;3.00;;
74042;SDS011;62384;53.600;10.040;2023-08-30T10:21:59;5.38;;;2.92;;
74042;SDS011;62384;53.600;10.040;2023-08-30T10:24:29;4.78;;;2.28;;
74042;SDS011;62384;53.600;10.040;2023-08-30T10:27:10;4.63;;;2.10;;
74042;SDS011;62384;53.600;10.040;2023-08-30T10:29:36;5.47;;;2.47;;
74042;SDS011;62384;53.600;10.040;2023-08-30T10:32:04;4.18;;;2.25;;
74042;SDS011;62384;53.600;10.040;2023-08-30T10:34:33;7.10;;;2.40;;
74042;SDS011;62384;53.600;10.040;2023-08-30T10:37:02;5.60;;;2.45;;
74042;SDS011;62384;53.600;10.040;2023-08-30T10:39:33;3.58;;;1.80;;
74042;SDS011;62384;53.600;10.040;2023-08-30T10:42:09;5.28;;;2.00;;
74042;SDS011;62384;53.600;10.040;2023-08-30T10:44:46;4.32;;;2.30;;
74042;SDS011;62384;53.600;10.040;2023-08-30T10:47:22;4.53;;;2.25;;
74042;SDS011;62384;53.600;10.040;2023-08-30T10:49:50;4.57;;;2.08;;
74042;SDS011;62384;53.600;10.040;2023-08-30T10:52:26;5.13;;;2.70;;
74042;SDS011;62384;53.600;10.040;2023-08-30T10:54:53;7.55;;;2.53;;
74042;SDS011;62384;53.600;10.040;2023-08-30T10:57:19;4.05;;;2.13;;
74042;SDS011;62384;53.600;10.040;2023-08-30T11:02:30;6.85;;;2.30;;
74042;SDS011;62384;53.600;10.040;2023-08-30T11:04:57;3.22;;;2.00;;
74042;SDS011;62384;53.600;10.040;2023-08-30T11:07:26;4.57;;;1.75;;
74042;SDS011;62384;53.600;10.040;2023-08-30T11:09:52;3.53;;;1.90;;
74042;SDS011;62384;53.600;10.040;2023-08-30T11:12:18;4.13;;;2.40;;
74042;SDS011;62384;53.600;10.040;2023-08-30T11:14:43;4.18;;;2.30;;
74042;SDS011;62384;53.600;10.040;2023-08-30T11:17:11;8.38;;;2.55;;
74042;SDS011;62384;53.600;10.040;2023-08-30T11:19:40;8.68;;;2.30;;
74042;SDS011;62384;53.600;10.040;2023-08-30T11:22:05;4.95;;;2.67;;
74042;SDS011;62384;53.600;10.040;2023-08-30T11:24:30;5.72;;;2.55;;
74042;SDS011;62384;53.600;10.040;2023-08-30T11:26:58;4.68;;;2.20;;
74042;SDS011;62384;53.600;10.040;2023-08-30T11:29:24;7.75;;;3.20;;
74042;SDS011;62384;53.600;10.040;2023-08-30T11:31:51;5.80;;;2.35;;
74042;SDS011;62384;53.600;10.040;2023-08-30T11:34:19;6.07;;;2.90;;
74042;SDS011;62384;53.600;10.040;2023-08-30T11:36:49;4.85;;;2.78;;
74042;SDS011;62384;53.600;10.040;2023-08-30T11:39:15;7.50;;;2.55;;
74042;SDS011;62384;53.600;10.040;2023-08-30T11:41:41;4.30;;;1.85;;
74042;SDS011;62384;53.600;10.040;2023-08-30T11:44:07;3.92;;;2.15;;
74042;SDS011;62384;53.600;10.040;2023-08-30T11:46:33;4.53;;;2.35;;
74042;SDS011;62384;53.600;10.040;2023-08-30T11:48:58;3.17;;;2.17;;
74042;SDS011;62384;53.600;10.040;2023-08-30T11:51:27;6.97;;;1.88;;
74042;SDS011;62384;53.600;10.040;2023-08-30T11:53:52;4.88;;;2.30;;
74042;SDS011;62384;53.600;10.040;2023-08-30T11:56:19;6.22;;;2.80;;
74042;SDS011;62384;53.600;10.040;2023-08-30T11:58:44;4.53;;;2.60;;
74042;SDS011;62384;53.600;10.040;2023-08-30T12:01:10;4.13;;;2.60;;
74042;SDS011;62384;53.600;10.040;2023-08-30T12:03:36;4.20;;;2.50;;
74042;SDS011;62384;53.600;10.040;2023-08-30T12:06:10;4.55;;;2.35;;
74042;SDS011;62384;53.600;10.040;2023-08-30T12:08:37;5.80;;;2.30;;
74042;SDS011;62384;53.600;10.040;2023-08-30T12:11:02;5.20;;;2.60;;
74042;SDS011;62384;53.600;10.040;2023-08-30T12:13:37;3.45;;;2.22;;
74042;SDS011;62384;53.600;10.040;2023-08-30T12:16:02;6.05;;;3.10;;
74042;SDS011;62384;53.600;10.040;2023-08-30T12:18:36;3.78;;;2.75;;
74042;SDS011;62384;53.600;10.040;2023-08-30T12:21:03;5.28;;;2.83;;
74042;SDS011;62384;53.600;10.040;2023-08-30T12:23:32;7.82;;;2.30;;
74042;SDS011;62384;53.600;10.040;2023-08-30T12:26:10;7.65;;;2.97;;
74042;SDS011;62384;53.600;10.040;2023-08-30T12:28:39;6.25;;;2.75;;
74042;SDS011;62384;53.600;10.040;2023-08-30T12:31:06;7.15;;;2.80;;
74042;SDS011;62384;53.600;10.040;2023-08-30T12:33:32;3.50;;;2.30;;
74042;SDS011;62384;53.600;10.040;2023-08-30T12:35:59;9.27;;;2.67;;
74042;SDS011;62384;53.600;10.040;2023-08-30T12:41:16;7.18;;;3.50;;
74042;SDS011;62384;53.600;10.040;2023-08-30T12:43:41;11.68;;;3.78;;
74042;SDS011;62384;53.600;10.040;2023-08-30T12:46:07;5.03;;;2.80;;
74042;SDS011;62384;53.600;10.040;2023-08-30T12:48:33;7.93;;;3.72;;
74042;SDS011;62384;53.600;10.040;2023-08-30T12:51:00;5.07;;;2.60;;
74042;SDS011;62384;53.600;10.040;2023-08-30T12:53:30;6.38;;;3.00;;
74042;SDS011;62384;53.600;10.040;2023-08-30T12:56:01;6.22;;;3.15;;
74042;SDS011;62384;53.600;10.040;2023-08-30T12:58:27;4.85;;;3.00;;
74042;SDS011;62384;53.600;10.040;2023-08-30T13:00:52;3.80;;;2.53;;
74042;SDS011;62384;53.600;10.040;2023-08-30T13:03:17;5.28;;;2.83;;
74042;SDS011;62384;53.600;10.040;2023-08-30T13:05:42;6.07;;;3.00;;
74042;SDS011;62384;53.600;10.040;2023-08-30T13:08:08;4.40;;;2.75;;
74042;SDS011;62384;53.600;10.040;2023-08-30T13:10:33;5.32;;;2.75;;
74042;SDS011;62384;53.600;10.040;2023-08-30T13:13:00;6.03;;;2.88;;
74042;SDS011;62384;53.600;10.040;2023-08-30T13:15:25;6.00;;;2.65;;
74042;SDS011;62384;53.600;10.040;2023-08-30T13:17:50;4.25;;;2.25;;
74042;SDS011;62384;53.600;10.040;2023-08-30T13:20:17;4.93;;;2.53;;
74042;SDS011;62384;53.600;10.040;2023-08-30T13:22:43;3.63;;;2.13;;
74042;SDS011;62384;53.600;10.040;2023-08-30T13:25:08;4.95;;;2.17;;
74042;SDS011;62384;53.600;10.040;2023-08-30T13:27:33;8.93;;;3.25;;
74042;SDS011;62384;53.600;10.040;2023-08-30T13:29:59;6.10;;;2.50;;
74042;SDS011;62384;53.600;10.040;2023-08-30T13:32:28;7.05;;;3.05;;
74042;SDS011;62384;53.600;10.040;2023-08-30T13:34:53;4.85;;;2.75;;
74042;SDS011;62384;53.600;10.040;2023-08-30T13:37:18;4.70;;;2.20;;
74042;SDS011;62384;53.600;10.040;2023-08-30T13:39:44;3.80;;;2.53;;
74042;SDS011;62384;53.600;10.040;2023-08-30T13:42:09;4.30;;;2.70;;
74042;SDS011;62384;53.600;10.040;2023-08-30T13:44:34;4.90;;;2.45;;
74042;SDS011;62384;53.600;10.040;2023-08-30T13:47:04;4.68;;;2.63;;
74042;SDS011;62384;53.600;10.040;2023-08-30T13:49:29;4.78;;;2.42;;
74042;SDS011;62384;53.600;10.040;2023-08-30T13:51:55;5.35;;;2.60;;
74042;SDS011;62384;53.600;10.040;2023-08-30T13:54:29;5.18;;;2.45;;
74042;SDS011;62384;53.600;10.040;2023-08-30T13:56:58;5.03;;;2.07;;
74042;SDS011;62384;53.600;10.040;2023-08-30T13:59:23;5.63;;;2.65;;
74042;SDS011;62384;53.600;10.040;2023-08-30T14:01:49;4.97;;;2.60;;
74042;SDS011;62384;53.600;10.040;2023-08-30T14:04:14;4.40;;;2.60;;
74042;SDS011;62384;53.600;10.040;2023-08-30T14:06:39;4.72;;;1.90;;
74042;SDS011;62384;53.600;10.040;2023-08-30T14:09:20;3.25;;;2.30;;
74042;SDS011;62384;53.600;10.040;2023-08-30T14:11:45;2.83;;;2.13;;
74042;SDS011;62384;53.600;10.040;2023-08-30T14:14:10;3.75;;;1.98;;
74042;SDS011;62384;53.600;10.040;2023-08-30T14:16:41;3.78;;;2.38;;
74042;SDS011;62384;53.600;10.040;2023-08-30T14:19:06;5.65;;;2.40;;
74042;SDS011;62384;53.600;10.040;2023-08-30T14:21:31;3.67;;;2.13;;
74042;SDS011;62384;53.600;10.040;2023-08-30T14:24:01;5.05;;;2.58;;
74042;SDS011;62384;53.600;10.040;2023-08-30T14:26:31;8.25;;;2.10;;
74042;SDS011;62384;53.600;10.040;2023-08-30T14:28:56;5.30;;;2.63;;
74042;SDS011;62384;53.600;10.040;2023-08-30T14:31:22;5.40;;;1.90;;
74042;SDS011;62384;53.600;10.040;2023-08-30T14:33:47;7.18;;;2.50;;
74042;SDS011;62384;53.600;10.040;2023-08-30T14:36:13;4.28;;;2.00;;
74042;SDS011;62384;53.600;10.040;2023-08-30T14:38:39;3.33;;;2.78;;
74042;SDS011;62384;53.600;10.040;2023-08-30T14:41:07;4.50;;;2.30;;
74042;SDS011;62384;53.600;10.040;2023-08-30T14:43:33;5.70;;;2.50;;
74042;SDS011;62384;53.600;10.040;2023-08-30T14:46:02;5.35;;;2.03;;